Time;durP1;ratioP1;P1;durP2;ratioP2;P2;SDS_P1;SDS_P2;PMS_P1;PMS_P2;Temp;Humidity;BMP_temperature;BMP_pressure;BME280_temperature;BME280_humidity;BME280_pressure;Samples;Min_cycle;Max_cycle;Signal;HPM_P1;HPM_P2
2022/11/17 00:02:10;;;;;;;3.08;1.10;;;;;;;;;;5017204;28;20037;-74
2022/11/17 00:04:36;;;;;;;1.80;1.20;;;;;;;;;;5017259;28;20113;-74
2022/11/17 00:07:01;;;;;;;1.08;0.98;;;;;;;;;;5016864;28;20049;-74
2022/11/17 00:09:26;;;;;;;1.42;1.10;;;;;;;;;;5017429;28;20439;-74
2022/11/17 00:14:39;;;;;;;1.98;1.77;;;;;;;;;;5017384;28;20430;-74
2022/11/17 00:17:06;;;;;;;1.20;1.10;;;;;;;;;;4999856;28;20426;-70
2022/11/17 00:22:16;;;;;;;1.42;1.33;;;;;;;;;;5016769;28;20466;-70
2022/11/17 00:24:42;;;;;;;1.60;1.50;;;;;;;;;;5016467;28;20166;-70
2022/11/17 00:27:08;;;;;;;3.55;1.88;;;;;;;;;;5014971;28;20037;-70
2022/11/17 00:29:33;;;;;;;2.67;2.00;;;;;;;;;;5015322;28;20068;-70
2022/11/17 00:34:43;;;;;;;1.30;1.20;;;;;;;;;;5016874;28;20097;-70
2022/11/17 00:37:09;;;;;;;1.83;1.60;;;;;;;;;;5016270;28;20141;-69
2022/11/17 00:39:35;;;;;;;1.98;1.45;;;;;;;;;;5016303;28;20116;-70
2022/11/17 00:42:00;;;;;;;1.10;1.00;;;;;;;;;;5016628;28;20104;-70
2022/11/17 00:44:26;;;;;;;1.90;1.17;;;;;;;;;;5015337;28;20085;-70
2022/11/17 00:46:51;;;;;;;1.10;1.00;;;;;;;;;;5016456;28;20072;-70
2022/11/17 00:49:23;;;;;;;2.35;1.60;;;;;;;;;;5016147;28;20441;-71
2022/11/17 00:51:49;;;;;;;2.03;1.50;;;;;;;;;;5016060;28;20109;-71
2022/11/17 00:54:15;;;;;;;1.80;1.42;;;;;;;;;;5016007;28;20530;-74
2022/11/17 00:56:40;;;;;;;1.75;1.52;;;;;;;;;;5015093;28;20124;-74
2022/11/17 00:59:06;;;;;;;1.23;1.10;;;;;;;;;;5014813;28;20018;-75
2022/11/17 01:01:31;;;;;;;1.90;1.67;;;;;;;;;;5017229;28;20108;-75
2022/11/17 01:04:02;;;;;;;1.10;1.10;;;;;;;;;;5018067;28;20054;-75
2022/11/17 01:06:30;;;;;;;1.00;1.00;;;;;;;;;;5018996;28;20029;-75
2022/11/17 01:09:00;;;;;;;1.17;1.17;;;;;;;;;;5018347;28;20029;-75
2022/11/17 01:11:26;;;;;;;1.45;1.33;;;;;;;;;;5016077;28;20026;-75
2022/11/17 01:13:53;;;;;;;1.02;1.02;;;;;;;;;;5015564;28;20069;-75
2022/11/17 01:16:18;;;;;;;0.90;0.90;;;;;;;;;;5016012;28;20026;-75
2022/11/17 01:18:45;;;;;;;1.42;1.33;;;;;;;;;;5016556;28;20021;-75
2022/11/17 01:21:17;;;;;;;2.47;1.55;;;;;;;;;;5015821;28;20161;-75
2022/11/17 01:23:43;;;;;;;1.05;1.05;;;;;;;;;;5015740;28;20054;-74
2022/11/17 01:26:09;;;;;;;0.88;0.88;;;;;;;;;;5015637;28;20018;-74
2022/11/17 01:28:35;;;;;;;1.77;1.45;;;;;;;;;;5015396;28;20025;-74
2022/11/17 01:31:11;;;;;;;0.60;0.60;;;;;;;;;;5025928;23;20062;-70
2022/11/17 01:33:36;;;;;;;1.50;1.25;;;;;;;;;;5014088;28;20033;-70
2022/11/17 01:36:03;;;;;;;1.05;0.85;;;;;;;;;;5015719;28;20374;-70
2022/11/17 01:38:28;;;;;;;1.02;0.70;;;;;;;;;;5014435;28;20038;-70
2022/11/17 01:40:55;;;;;;;0.75;0.75;;;;;;;;;;5014544;28;20358;-70
2022/11/17 01:43:35;;;;;;;1.17;0.93;;;;;;;;;;5015376;28;20026;-70
2022/11/17 01:46:00;;;;;;;0.70;0.70;;;;;;;;;;5015144;28;20036;-70
2022/11/17 01:48:26;;;;;;;0.90;0.88;;;;;;;;;;5029242;23;20065;-74
2022/11/17 01:50:51;;;;;;;1.00;0.90;;;;;;;;;;5015013;28;20061;-75
2022/11/17 01:53:19;;;;;;;0.60;0.60;;;;;;;;;;5015634;28;20085;-74
2022/11/17 01:55:52;;;;;;;0.60;0.60;;;;;;;;;;5015109;28;20088;-75
2022/11/17 01:58:20;;;;;;;0.63;0.63;;;;;;;;;;5014864;28;20121;-74
2022/11/17 02:00:46;;;;;;;0.50;0.50;;;;;;;;;;5015371;28;20124;-74
2022/11/17 02:03:12;;;;;;;0.68;0.60;;;;;;;;;;5015084;28;20116;-74
2022/11/17 02:05:56;;;;;;;0.60;0.60;;;;;;;;;;5013713;28;20076;-74
2022/11/17 02:08:24;;;;;;;1.02;0.75;;;;;;;;;;5014923;28;20037;-74
2022/11/17 02:10:50;;;;;;;0.60;0.60;;;;;;;;;;5014713;28;20022;-74
2022/11/17 02:13:15;;;;;;;0.82;0.70;;;;;;;;;;5014624;28;20129;-74
2022/11/17 02:15:41;;;;;;;0.85;0.85;;;;;;;;;;5013232;28;20105;-74
2022/11/17 02:18:06;;;;;;;0.73;0.73;;;;;;;;;;5013299;28;20033;-74
2022/11/17 02:20:50;;;;;;;0.70;0.68;;;;;;;;;;5014801;28;20498;-74
2022/11/17 02:23:35;;;;;;;0.50;0.50;;;;;;;;;;5014630;28;20133;-74
2022/11/17 02:26:00;;;;;;;0.70;0.70;;;;;;;;;;5015258;28;20374;-74
2022/11/17 02:28:29;;;;;;;0.50;0.50;;;;;;;;;;5014322;28;20026;-74
2022/11/17 02:30:58;;;;;;;0.70;0.60;;;;;;;;;;5014868;28;20038;-74
2022/11/17 02:33:29;;;;;;;0.63;0.63;;;;;;;;;;5014360;28;20276;-74
2022/11/17 02:36:08;;;;;;;0.98;0.70;;;;;;;;;;5014303;28;20121;-74
2022/11/17 02:38:50;;;;;;;0.70;0.70;;;;;;;;;;5014751;28;20030;-74
2022/11/17 02:41:23;;;;;;;0.60;0.60;;;;;;;;;;5014427;28;20030;-74
2022/11/17 02:44:04;;;;;;;1.10;0.70;;;;;;;;;;5013221;28;20041;-74
2022/11/17 02:46:29;;;;;;;;;;;;;;;;;;5013204;28;20022;-73
2022/11/17 02:48:57;;;;;;;0.80;0.50;;;;;;;;;;5013642;28;19917;-74
2022/11/17 02:51:23;;;;;;;0.57;0.50;;;;;;;;;;5014272;28;20030;-74
2022/11/17 02:53:51;;;;;;;0.70;0.57;;;;;;;;;;5013380;28;20022;-75
2022/11/17 02:56:16;;;;;;;0.50;0.50;;;;;;;;;;5013276;28;20058;-75
2022/11/17 02:58:41;;;;;;;1.23;0.50;;;;;;;;;;5014215;28;20049;-75
2022/11/17 03:01:07;;;;;;;0.50;0.50;;;;;;;;;;5013176;28;20037;-74
2022/11/17 03:03:39;;;;;;;0.55;0.47;;;;;;;;;;5014061;28;20477;-75
2022/11/17 03:06:14;;;;;;;0.63;0.63;;;;;;;;;;5012656;28;20124;-75
2022/11/17 03:08:55;;;;;;;0.50;0.50;;;;;;;;;;5014246;28;20057;-75
2022/11/17 03:11:20;;;;;;;;;;;;;;;;;;5014418;28;20489;-75
2022/11/17 03:13:54;;;;;;;0.80;0.80;;;;;;;;;;5013075;28;19905;-75
2022/11/17 03:16:22;;;;;;;0.90;0.90;;;;;;;;;;5014055;28;20052;-75
2022/11/17 03:18:53;;;;;;;0.70;0.70;;;;;;;;;;5012839;28;20014;-74
2022/11/17 03:21:21;;;;;;;0.80;0.80;;;;;;;;;;5013668;28;20038;-75
2022/11/17 03:23:53;;;;;;;1.40;0.98;;;;;;;;;;5014197;28;20380;-75
2022/11/17 03:26:22;;;;;;;0.90;0.90;;;;;;;;;;5012383;28;20021;-73
2022/11/17 03:28:47;;;;;;;1.13;0.50;;;;;;;;;;5013615;28;20454;-73
2022/11/17 03:31:14;;;;;;;0.70;0.68;;;;;;;;;;5013632;28;20049;-75
2022/11/17 03:33:40;;;;;;;0.43;0.43;;;;;;;;;;5013665;28;20029;-74
2022/11/17 03:36:11;;;;;;;0.45;0.45;;;;;;;;;;5013869;28;20065;-74
2022/11/17 03:38:36;;;;;;;;;;;;;;;;;;5014290;28;20026;-74
2022/11/17 03:41:02;;;;;;;0.45;0.40;;;;;;;;;;5013851;28;20417;-74
2022/11/17 03:43:29;;;;;;;0.63;0.50;;;;;;;;;;5013510;28;20026;-74
2022/11/17 03:45:57;;;;;;;0.82;0.45;;;;;;;;;;5013479;28;20054;-75
2022/11/17 03:48:28;;;;;;;0.65;0.65;;;;;;;;;;5013439;28;20112;-74
2022/11/17 03:50:56;;;;;;;0.50;0.50;;;;;;;;;;5013775;28;20045;-74
2022/11/17 03:53:21;;;;;;;0.50;0.50;;;;;;;;;;5016626;28;20026;-74
2022/11/17 03:55:54;;;;;;;0.68;0.50;;;;;;;;;;5016633;28;20432;-74
2022/11/17 03:58:27;;;;;;;0.50;0.50;;;;;;;;;;5013548;28;20573;-74
2022/11/17 04:00:54;;;;;;;0.50;0.50;;;;;;;;;;5014006;28;20022;-73
2022/11/17 04:03:27;;;;;;;0.50;0.50;;;;;;;;;;5013684;28;20018;-73
2022/11/17 04:05:52;;;;;;;0.50;0.50;;;;;;;;;;5017008;28;20037;-74
2022/11/17 04:08:22;;;;;;;0.40;0.40;;;;;;;;;;5015914;28;20030;-74
2022/11/17 04:16:15;;;;;;;0.70;0.70;;;;;;;;;;5017042;28;20050;-73
2022/11/17 04:18:41;;;;;;;0.70;0.70;;;;;;;;;;5016922;28;20022;-73
2022/11/17 04:21:06;;;;;;;0.45;0.45;;;;;;;;;;5016868;28;20370;-73
2022/11/17 04:23:31;;;;;;;0.50;0.50;;;;;;;;;;5016631;28;20410;-74
2022/11/17 04:28:43;;;;;;;0.50;0.50;;;;;;;;;;5016619;28;20034;-74
2022/11/17 04:31:11;;;;;;;0.50;0.50;;;;;;;;;;5016857;28;20453;-74
2022/11/17 04:33:37;;;;;;;0.40;0.40;;;;;;;;;;5016531;28;20041;-74
2022/11/17 04:36:02;;;;;;;0.50;0.50;;;;;;;;;;5016402;28;20025;-74
2022/11/17 04:38:28;;;;;;;0.38;0.35;;;;;;;;;;5016602;28;20026;-75
2022/11/17 04:43:42;;;;;;;0.50;0.50;;;;;;;;;;5016878;28;20030;-75
2022/11/17 04:46:08;;;;;;;0.50;0.50;;;;;;;;;;5014733;28;20459;-73
2022/11/17 04:48:33;;;;;;;0.50;0.50;;;;;;;;;;5015894;28;20045;-74
2022/11/17 04:51:01;;;;;;;0.40;0.40;;;;;;;;;;5016692;28;20030;-74
2022/11/17 04:53:28;;;;;;;0.35;0.35;;;;;;;;;;5016369;28;20518;-74
2022/11/17 04:55:57;;;;;;;0.40;0.40;;;;;;;;;;5016100;28;20025;-74
2022/11/17 04:58:23;;;;;;;0.47;0.47;;;;;;;;;;5016560;28;20026;-74
2022/11/17 05:00:49;;;;;;;0.40;0.40;;;;;;;;;;5016151;28;20465;-73
2022/11/17 05:03:14;;;;;;;0.40;0.40;;;;;;;;;;5015668;28;20389;-73
2022/11/17 05:05:43;;;;;;;0.40;0.40;;;;;;;;;;5015764;28;20084;-70
2022/11/17 05:08:09;;;;;;;0.30;0.30;;;;;;;;;;5014479;28;20061;-69
2022/11/17 05:13:20;;;;;;;0.40;0.40;;;;;;;;;;5016256;28;20052;-70
2022/11/17 05:18:33;;;;;;;0.47;0.47;;;;;;;;;;5015859;28;20116;-70
2022/11/17 05:21:01;;;;;;;0.70;0.50;;;;;;;;;;5014669;28;20057;-70
2022/11/17 05:26:11;;;;;;;0.50;0.50;;;;;;;;;;5015555;28;20037;-73
2022/11/17 05:28:36;;;;;;;0.35;0.35;;;;;;;;;;5012439;28;20014;-73
2022/11/17 05:31:01;;;;;;;0.63;0.50;;;;;;;;;;5014285;28;20028;-74
2022/11/17 05:33:28;;;;;;;0.40;0.40;;;;;;;;;;5013075;28;20426;-74
2022/11/17 05:35:53;;;;;;;0.50;0.50;;;;;;;;;;5013830;28;20026;-74
2022/11/17 05:38:18;;;;;;;0.98;0.55;;;;;;;;;;5014136;28;20121;-74
2022/11/17 05:40:44;;;;;;;0.85;0.68;;;;;;;;;;5013740;28;20030;-74
2022/11/17 05:43:09;;;;;;;0.50;0.50;;;;;;;;;;5012911;28;20060;-74
2022/11/17 05:45:34;;;;;;;0.60;0.60;;;;;;;;;;5013942;28;20073;-74
2022/11/17 05:48:00;;;;;;;0.70;0.70;;;;;;;;;;5012313;28;20126;-73
2022/11/17 05:50:25;;;;;;;0.60;0.60;;;;;;;;;;5013604;28;20038;-73
2022/11/17 05:52:53;;;;;;;0.70;0.63;;;;;;;;;;5012372;28;20114;-73
2022/11/17 05:55:19;;;;;;;0.60;0.60;;;;;;;;;;5013551;28;20145;-74
2022/11/17 05:57:44;;;;;;;1.20;0.50;;;;;;;;;;5012724;28;20018;-74
2022/11/17 06:00:10;;;;;;;0.70;0.70;;;;;;;;;;5012609;28;20429;-73
2022/11/17 06:02:46;;;;;;;2.10;0.70;;;;;;;;;;5013719;28;20018;-74
2022/11/17 06:05:11;;;;;;;2.80;1.13;;;;;;;;;;5012508;28;20030;-74
2022/11/17 06:07:37;;;;;;;0.50;0.50;;;;;;;;;;5013332;28;20497;-74
2022/11/17 06:10:02;;;;;;;1.85;0.60;;;;;;;;;;5013573;28;20029;-74
2022/11/17 06:12:27;;;;;;;0.40;0.40;;;;;;;;;;5013572;28;20076;-74
2022/11/17 06:14:53;;;;;;;0.57;0.57;;;;;;;;;;5013858;28;20037;-74
2022/11/17 06:17:21;;;;;;;0.82;0.65;;;;;;;;;;5014500;28;20018;-74
2022/11/17 06:19:49;;;;;;;0.90;0.90;;;;;;;;;;5014506;28;20033;-74
2022/11/17 06:22:14;;;;;;;1.00;0.90;;;;;;;;;;4996473;28;20018;-74
2022/11/17 06:24:42;;;;;;;0.70;0.70;;;;;;;;;;5013910;28;20040;-74
2022/11/17 06:27:08;;;;;;;0.70;0.70;;;;;;;;;;5014002;28;20394;-74
2022/11/17 06:29:33;;;;;;;1.23;0.80;;;;;;;;;;5014659;28;20025;-74
2022/11/17 06:31:59;;;;;;;0.65;0.65;;;;;;;;;;5014332;28;20026;-74
2022/11/17 06:34:25;;;;;;;0.70;0.70;;;;;;;;;;5012940;28;20034;-74
2022/11/17 06:36:52;;;;;;;0.68;0.68;;;;;;;;;;5014234;28;20109;-74
2022/11/17 06:39:18;;;;;;;0.82;0.70;;;;;;;;;;5014472;28;20433;-74
2022/11/17 06:41:43;;;;;;;0.65;0.65;;;;;;;;;;5013014;28;20096;-74
2022/11/17 06:44:09;;;;;;;0.82;0.82;;;;;;;;;;5014413;28;20032;-74
2022/11/17 06:46:36;;;;;;;1.02;0.70;;;;;;;;;;5014144;28;20466;-74
2022/11/17 06:49:06;;;;;;;0.70;0.70;;;;;;;;;;5014052;28;20041;-74
2022/11/17 06:51:31;;;;;;;0.82;0.80;;;;;;;;;;5014768;28;20030;-74
2022/11/17 06:53:57;;;;;;;1.02;0.90;;;;;;;;;;5014933;28;20033;-74
2022/11/17 06:56:22;;;;;;;1.55;1.23;;;;;;;;;;4997135;28;20490;-74
2022/11/17 06:58:48;;;;;;;1.08;1.08;;;;;;;;;;5014051;28;20101;-70
2022/11/17 07:01:13;;;;;;;1.90;1.10;;;;;;;;;;5013212;28;20425;-70
2022/11/17 07:03:40;;;;;;;3.22;2.92;;;;;;;;;;5012593;28;20026;-70
2022/11/17 07:06:06;;;;;;;1.30;1.00;;;;;;;;;;5013892;28;20025;-70
2022/11/17 07:08:32;;;;;;;1.30;1.20;;;;;;;;;;5014159;28;20080;-70
2022/11/17 07:11:15;;;;;;;1.45;1.35;;;;;;;;;;5012586;28;20418;-70
2022/11/17 07:13:40;;;;;;;1.52;1.17;;;;;;;;;;5013713;28;20092;-70
2022/11/17 07:16:10;;;;;;;1.58;1.48;;;;;;;;;;5012445;28;20034;-70
2022/11/17 07:18:36;;;;;;;2.10;1.90;;;;;;;;;;5014014;28;20030;-70
2022/11/17 07:21:02;;;;;;;3.10;3.00;;;;;;;;;;5013753;28;20029;-70
2022/11/17 07:23:28;;;;;;;1.80;1.70;;;;;;;;;;5012809;28;20034;-70
2022/11/17 07:25:53;;;;;;;1.85;1.75;;;;;;;;;;5012442;28;20029;-70
2022/11/17 07:28:19;;;;;;;6.22;5.82;;;;;;;;;;5013636;28;20034;-70
2022/11/17 07:30:45;;;;;;;6.13;5.72;;;;;;;;;;5012957;28;20037;-70
2022/11/17 07:33:10;;;;;;;2.67;2.55;;;;;;;;;;5013586;28;20088;-70
2022/11/17 07:35:36;;;;;;;2.40;2.30;;;;;;;;;;5013803;28;20023;-70
2022/11/17 07:38:01;;;;;;;2.45;2.15;;;;;;;;;;5012378;28;20545;-70
2022/11/17 07:40:29;;;;;;;2.15;2.00;;;;;;;;;;5014994;28;20022;-70
2022/11/17 07:42:55;;;;;;;3.50;3.30;;;;;;;;;;5017706;28;20030;-70
2022/11/17 07:45:22;;;;;;;2.50;2.40;;;;;;;;;;5017659;28;20034;-70
2022/11/17 07:47:57;;;;;;;3.88;3.58;;;;;;;;;;5017320;28;20042;-70
2022/11/17 07:50:24;;;;;;;68.85;31.50;;;;;;;;;;5016023;28;20037;-70
2022/11/17 07:52:50;;;;;;;13.98;10.43;;;;;;;;;;5017788;28;20034;-70
2022/11/17 07:55:16;;;;;;;11.93;10.65;;;;;;;;;;5017152;28;20037;-70
2022/11/17 07:57:41;;;;;;;15.18;12.65;;;;;;;;;;5017445;28;20017;-70
2022/11/17 08:00:07;;;;;;;28.42;18.80;;;;;;;;;;5017376;28;20034;-70
2022/11/17 08:02:37;;;;;;;20.70;14.98;;;;;;;;;;5015970;28;20371;-70
2022/11/17 08:05:03;;;;;;;8.38;7.65;;;;;;;;;;5016993;28;20036;-70
2022/11/17 08:07:28;;;;;;;2.35;2.25;;;;;;;;;;5017283;28;20149;-70
2022/11/17 08:09:53;;;;;;;1.63;1.52;;;;;;;;;;5016928;28;20463;-70
2022/11/17 08:12:19;;;;;;;2.00;1.90;;;;;;;;;;5016862;28;20100;-74
2022/11/17 08:14:44;;;;;;;2.83;2.35;;;;;;;;;;5015491;28;20030;-74
2022/11/17 08:17:09;;;;;;;2.03;1.92;;;;;;;;;;5015498;28;20112;-75
2022/11/17 08:19:36;;;;;;;3.10;2.90;;;;;;;;;;5016738;28;20033;-74
2022/11/17 08:22:01;;;;;;;7.13;5.55;;;;;;;;;;5016922;28;20018;-74
2022/11/17 08:24:26;;;;;;;5.30;4.78;;;;;;;;;;5016593;28;20104;-70
2022/11/17 08:26:52;;;;;;;2.72;2.38;;;;;;;;;;4999059;28;20061;-70
2022/11/17 08:29:18;;;;;;;1.92;1.83;;;;;;;;;;5017127;28;20359;-70
2022/11/17 08:31:45;;;;;;;1.70;1.58;;;;;;;;;;5016549;28;20021;-70
2022/11/17 08:34:10;;;;;;;2.25;2.15;;;;;;;;;;5016403;28;20038;-70
2022/11/17 08:36:36;;;;;;;2.60;2.40;;;;;;;;;;5016682;28;20036;-70
2022/11/17 08:39:01;;;;;;;2.08;1.98;;;;;;;;;;5016654;28;20101;-70
2022/11/17 08:41:26;;;;;;;3.30;3.10;;;;;;;;;;5016323;28;20048;-70
2022/11/17 08:43:52;;;;;;;4.85;4.35;;;;;;;;;;5016867;28;20030;-70
2022/11/17 08:46:17;;;;;;;5.85;4.10;;;;;;;;;;5015660;28;20021;-71
2022/11/17 08:48:43;;;;;;;12.55;7.18;;;;;;;;;;5014708;28;20030;-70
2022/11/17 08:51:08;;;;;;;1.60;1.50;;;;;;;;;;5016058;28;20026;-70
2022/11/17 08:53:33;;;;;;;1.50;1.38;;;;;;;;;;5016422;28;20026;-70
2022/11/17 08:55:59;;;;;;;4.20;3.90;;;;;;;;;;5016030;28;20029;-71
2022/11/17 08:58:24;;;;;;;2.55;2.35;;;;;;;;;;5015999;28;20038;-71
2022/11/17 09:00:49;;;;;;;1.40;1.30;;;;;;;;;;5016548;28;20021;-70
2022/11/17 09:03:15;;;;;;;1.80;1.10;;;;;;;;;;5014678;28;20044;-70
2022/11/17 09:05:45;;;;;;;1.50;1.30;;;;;;;;;;5015900;28;20401;-71
2022/11/17 09:08:13;;;;;;;1.50;1.40;;;;;;;;;;5016127;28;20072;-70
2022/11/17 09:10:38;;;;;;;1.08;1.08;;;;;;;;;;5016100;28;20072;-70
2022/11/17 09:13:03;;;;;;;1.55;1.45;;;;;;;;;;5014505;28;20489;-71
2022/11/17 09:15:29;;;;;;;2.20;2.10;;;;;;;;;;5016153;28;20021;-70
2022/11/17 09:17:54;;;;;;;1.50;1.40;;;;;;;;;;5015946;28;20060;-71
2022/11/17 09:20:20;;;;;;;1.52;1.42;;;;;;;;;;5015607;28;20022;-70
2022/11/17 09:22:45;;;;;;;1.75;1.65;;;;;;;;;;5028720;23;20049;-74
2022/11/17 09:25:11;;;;;;;3.10;2.80;;;;;;;;;;5014777;28;20485;-74
2022/11/17 09:27:37;;;;;;;3.53;3.22;;;;;;;;;;5016075;28;20025;-74
2022/11/17 09:30:03;;;;;;;3.47;3.13;;;;;;;;;;5015380;28;20509;-74
2022/11/17 09:32:28;;;;;;;2.65;2.45;;;;;;;;;;5015668;28;20022;-74
2022/11/17 09:34:53;;;;;;;3.97;3.67;;;;;;;;;;5015509;28;20429;-74
2022/11/17 09:37:19;;;;;;;3.05;2.85;;;;;;;;;;5015889;28;20025;-74
2022/11/17 09:39:45;;;;;;;3.38;3.17;;;;;;;;;;5015234;28;20533;-74
2022/11/17 09:42:14;;;;;;;10.20;7.03;;;;;;;;;;5015461;28;20018;-74
2022/11/17 09:44:50;;;;;;;2.20;2.08;;;;;;;;;;5016140;28;20029;-74
2022/11/17 09:47:21;;;;;;;3.55;3.35;;;;;;;;;;5015781;28;20467;-74
2022/11/17 09:50:04;;;;;;;2.60;2.47;;;;;;;;;;5015205;28;20432;-74
2022/11/17 09:52:38;;;;;;;2.78;2.58;;;;;;;;;;5014762;28;20117;-74
2022/11/17 09:55:06;;;;;;;5.00;4.68;;;;;;;;;;5013523;28;20037;-74
2022/11/17 09:57:32;;;;;;;24.60;19.02;;;;;;;;;;5013682;28;20125;-74
2022/11/17 10:00:14;;;;;;;29.67;25.77;;;;;;;;;;5014701;28;20537;-74
2022/11/17 10:02:40;;;;;;;4.28;3.97;;;;;;;;;;5014693;28;20048;-72
2022/11/17 10:05:11;;;;;;;8.88;8.07;;;;;;;;;;5014667;28;20018;-72
2022/11/17 10:07:36;;;;;;;5.30;4.90;;;;;;;;;;5014740;28;20025;-72
2022/11/17 10:10:03;;;;;;;2.97;2.78;;;;;;;;;;5014951;28;20093;-73
2022/11/17 10:12:37;;;;;;;2.40;2.30;;;;;;;;;;5013116;28;20030;-73
2022/11/17 10:15:41;;;;;;;1.92;1.83;;;;;;;;;;5014712;28;20451;-72
2022/11/17 10:18:12;;;;;;;32.08;19.67;;;;;;;;;;4954726;29;20023;-73
2022/11/17 10:20:37;;;;;;;40.53;26.55;;;;;;;;;;4970142;28;20471;-70
2022/11/17 10:23:03;;;;;;;2.28;2.17;;;;;;;;;;4983315;28;20049;-72
2022/11/17 10:25:35;;;;;;;2.95;2.75;;;;;;;;;;5014739;28;20065;-72
2022/11/17 10:28:02;;;;;;;13.75;10.48;;;;;;;;;;5014953;28;20037;-73
2022/11/17 10:30:27;;;;;;;7.45;6.68;;;;;;;;;;5014362;28;20022;-73
2022/11/17 10:32:57;;;;;;;16.92;10.35;;;;;;;;;;5014581;28;20040;-73
2022/11/17 10:35:27;;;;;;;13.13;9.40;;;;;;;;;;5014500;28;20073;-73
2022/11/17 10:38:05;;;;;;;20.07;11.43;;;;;;;;;;5014242;28;20253;-73
2022/11/17 10:40:32;;;;;;;31.17;18.60;;;;;;;;;;5014468;28;20240;-73
2022/11/17 10:43:03;;;;;;;5.50;5.00;;;;;;;;;;5014213;28;20022;-73
2022/11/17 10:45:29;;;;;;;8.50;6.60;;;;;;;;;;5014661;28;20030;-73
2022/11/17 10:48:08;;;;;;;2.70;2.28;;;;;;;;;;5014375;28;20018;-73
2022/11/17 10:50:34;;;;;;;8.68;6.70;;;;;;;;;;5014306;28;20069;-73
2022/11/17 10:53:18;;;;;;;5.53;4.50;;;;;;;;;;5012594;28;20045;-73
2022/11/17 10:55:43;;;;;;;5.07;3.53;;;;;;;;;;5012675;28;20030;-73
2022/11/17 10:58:35;;;;;;;8.45;4.78;;;;;;;;;;5012703;28;20033;-73
2022/11/17 11:01:02;;;;;;;3.80;3.47;;;;;;;;;;4991909;28;20206;-73
2022/11/17 11:03:31;;;;;;;3.47;3.00;;;;;;;;;;5014240;28;20018;-73
2022/11/17 11:06:04;;;;;;;3.40;3.20;;;;;;;;;;5014192;28;20038;-73
2022/11/17 11:08:36;;;;;;;4.00;3.60;;;;;;;;;;5014144;28;20061;-73
2022/11/17 11:11:06;;;;;;;4.03;3.65;;;;;;;;;;5012514;28;20124;-73
2022/11/17 11:13:44;;;;;;;26.45;16.33;;;;;;;;;;5012398;28;20048;-72
2022/11/17 11:16:10;;;;;;;2.33;2.22;;;;;;;;;;5012061;28;20029;-72
2022/11/17 11:18:37;;;;;;;2.33;2.22;;;;;;;;;;5012974;28;20021;-72
2022/11/17 11:21:15;;;;;;;3.22;3.03;;;;;;;;;;5010666;28;20555;-72
2022/11/17 11:23:54;;;;;;;3.70;3.40;;;;;;;;;;5012318;28;20040;-72
2022/11/17 11:26:22;;;;;;;2.60;2.40;;;;;;;;;;5012463;28;20040;-73
2022/11/17 11:29:08;;;;;;;2.28;2.17;;;;;;;;;;5011699;28;20025;-73
2022/11/17 11:31:41;;;;;;;2.50;2.40;;;;;;;;;;5009932;28;20046;-73
2022/11/17 11:34:14;;;;;;;2.60;2.40;;;;;;;;;;5010388;28;20085;-73
2022/11/17 11:36:58;;;;;;;5.20;4.70;;;;;;;;;;5011614;28;20052;-73
2022/11/17 11:39:42;;;;;;;21.63;12.07;;;;;;;;;;5010373;28;20030;-73
2022/11/17 11:42:13;;;;;;;45.65;20.45;;;;;;;;;;5011598;28;20230;-73
2022/11/17 11:44:47;;;;;;;49.90;23.75;;;;;;;;;;5010361;28;20572;-73
2022/11/17 11:47:31;;;;;;;37.45;18.77;;;;;;;;;;5011714;28;20092;-73
2022/11/17 11:50:13;;;;;;;78.57;50.50;;;;;;;;;;5012143;28;20037;-72
2022/11/17 11:52:40;;;;;;;29.40;26.88;;;;;;;;;;5012788;28;20030;-72
2022/11/17 11:55:15;;;;;;;34.83;31.95;;;;;;;;;;5012782;28;20019;-72
2022/11/17 11:57:45;;;;;;;56.03;48.20;;;;;;;;;;5013621;28;20026;-72
2022/11/17 12:00:13;;;;;;;18.20;16.52;;;;;;;;;;5013363;28;20470;-72
2022/11/17 12:02:57;;;;;;;21.95;19.08;;;;;;;;;;5013377;28;20454;-73
2022/11/17 12:05:28;;;;;;;28.42;21.42;;;;;;;;;;5013598;28;20393;-73
2022/11/17 12:07:57;;;;;;;94.60;58.92;;;;;;;;;;5013817;28;20055;-73
2022/11/17 12:10:41;;;;;;;56.28;40.10;;;;;;;;;;5013270;28;20018;-73
2022/11/17 12:13:11;;;;;;;32.28;22.63;;;;;;;;;;5012654;28;20038;-73
2022/11/17 12:15:37;;;;;;;;;;;;;;;;;;5013872;28;20030;-73
2022/11/17 12:18:13;;;;;;;59.40;36.40;;;;;;;;;;5013207;28;19996;-73
2022/11/17 12:20:39;;;;;;;61.78;40.28;;;;;;;;;;5012323;28;20034;-73
2022/11/17 12:23:21;;;;;;;52.30;39.88;;;;;;;;;;5012952;28;20137;-73
2022/11/17 12:25:48;;;;;;;28.83;24.38;;;;;;;;;;5014914;28;20026;-73
2022/11/17 12:28:25;;;;;;;12.75;11.10;;;;;;;;;;5015380;28;20053;-73
2022/11/17 12:30:52;;;;;;;31.02;24.70;;;;;;;;;;5016571;28;20501;-73
2022/11/17 12:33:17;;;;;;;7.25;6.63;;;;;;;;;;5016852;28;20105;-73
2022/11/17 12:35:43;;;;;;;4.18;3.83;;;;;;;;;;5016418;28;20529;-73
2022/11/17 12:38:14;;;;;;;6.72;5.32;;;;;;;;;;5016744;28;20022;-73
2022/11/17 12:40:42;;;;;;;3.95;3.28;;;;;;;;;;5016696;28;20104;-73
2022/11/17 12:43:26;;;;;;;7.53;5.25;;;;;;;;;;5016379;28;20010;-73
2022/11/17 12:45:58;;;;;;;7.85;6.45;;;;;;;;;;5015163;28;20116;-73
2022/11/17 12:48:33;;;;;;;61.58;39.97;;;;;;;;;;5016522;28;20034;-73
2022/11/17 12:51:00;;;;;;;33.30;22.67;;;;;;;;;;5016235;28;20116;-73
2022/11/17 12:53:30;;;;;;;28.13;19.40;;;;;;;;;;5016466;28;20026;-73
2022/11/17 12:56:07;;;;;;;11.10;8.50;;;;;;;;;;5014794;28;20033;-73
2022/11/17 12:58:39;;;;;;;54.30;36.15;;;;;;;;;;5016312;28;20033;-73
2022/11/17 13:01:23;;;;;;;27.38;21.67;;;;;;;;;;5016614;28;20085;-73
2022/11/17 13:03:48;;;;;;;26.30;16.92;;;;;;;;;;5014732;28;20506;-73
2022/11/17 13:06:15;;;;;;;42.63;27.10;;;;;;;;;;5015035;28;20060;-73
2022/11/17 13:08:53;;;;;;;8.50;6.82;;;;;;;;;;5014617;28;20287;-73
2022/11/17 13:11:18;;;;;;;18.27;13.13;;;;;;;;;;5015867;28;20030;-73
2022/11/17 13:13:45;;;;;;;45.63;27.83;;;;;;;;;;5014501;28;20029;-73
2022/11/17 13:16:18;;;;;;;9.27;7.47;;;;;;;;;;5015677;28;20038;-73
2022/11/17 13:18:44;;;;;;;65.40;32.35;;;;;;;;;;5016203;28;20451;-73
2022/11/17 13:21:16;;;;;;;12.25;9.73;;;;;;;;;;5014414;28;20060;-73
2022/11/17 13:23:42;;;;;;;5.22;4.78;;;;;;;;;;5015037;28;20070;-73
2022/11/17 13:26:19;;;;;;;3.70;3.25;;;;;;;;;;5014829;28;20030;-73
2022/11/17 13:28:44;;;;;;;27.33;21.60;;;;;;;;;;5014810;28;20034;-73
2022/11/17 13:31:16;;;;;;;10.07;7.25;;;;;;;;;;5014827;28;20420;-73
2022/11/17 13:33:41;;;;;;;22.45;17.38;;;;;;;;;;5013784;28;20056;-73
2022/11/17 13:36:13;;;;;;;14.80;11.40;;;;;;;;;;5014568;28;20470;-73
2022/11/17 13:38:45;;;;;;;29.05;23.38;;;;;;;;;;5014315;28;20054;-73
2022/11/17 13:41:10;;;;;;;10.55;8.43;;;;;;;;;;5014347;28;20521;-73
2022/11/17 13:43:38;;;;;;;25.38;22.38;;;;;;;;;;5013157;28;20056;-73
2022/11/17 13:46:05;;;;;;;20.23;12.77;;;;;;;;;;5014275;28;20061;-73
2022/11/17 13:48:34;;;;;;;251.10;100.68;;;;;;;;;;5012988;28;20022;-73
2022/11/17 13:51:18;;;;;;;25.92;11.63;;;;;;;;;;5014495;28;20120;-73
2022/11/17 13:54:05;;;;;;;93.18;35.97;;;;;;;;;;5013249;28;20037;-73
2022/11/17 13:56:33;;;;;;;150.93;63.80;;;;;;;;;;5001020;28;20459;-73
2022/11/17 13:58:59;;;;;;;33.83;22.83;;;;;;;;;;5014082;28;20064;-73
2022/11/17 14:01:30;;;;;;;39.80;17.17;;;;;;;;;;5014035;28;20059;-73
2022/11/17 14:04:31;;;;;;;129.00;55.67;;;;;;;;;;5014018;28;20030;-73
2022/11/17 14:07:00;;;;;;;37.15;18.65;;;;;;;;;;4934767;29;20106;-73
2022/11/17 14:09:27;;;;;;;54.13;27.30;;;;;;;;;;4999664;28;20041;-73
2022/11/17 14:11:52;;;;;;;164.10;72.25;;;;;;;;;;5014386;28;20115;-73
2022/11/17 14:14:19;;;;;;;208.18;106.10;;;;;;;;;;5013760;28;20057;-73
2022/11/17 14:16:45;;;;;;;228.18;120.47;;;;;;;;;;5013757;28;20109;-73
2022/11/17 14:19:13;;;;;;;106.53;46.90;;;;;;;;;;5014316;28;20478;-73
2022/11/17 14:21:56;;;;;;;12.45;7.95;;;;;;;;;;5013988;28;20026;-73
2022/11/17 14:24:21;;;;;;;80.15;39.67;;;;;;;;;;4971348;28;1239320;-72
2022/11/17 14:26:47;;;;;;;218.75;99.55;;;;;;;;;;5014725;28;20549;-73
2022/11/17 14:29:12;;;;;;;487.20;233.93;;;;;;;;;;5013176;28;20018;-73
2022/11/17 14:31:38;;;;;;;349.10;150.65;;;;;;;;;;5014632;28;20026;-73
2022/11/17 14:34:03;;;;;;;76.82;37.28;;;;;;;;;;5014541;28;20052;-73
2022/11/17 14:36:30;;;;;;;135.20;100.88;;;;;;;;;;5014558;28;20105;-73
2022/11/17 14:38:55;;;;;;;61.63;55.13;;;;;;;;;;5014241;28;20010;-73
2022/11/17 14:41:21;;;;;;;51.30;45.88;;;;;;;;;;5014261;28;20112;-73
2022/11/17 14:43:46;;;;;;;29.88;26.70;;;;;;;;;;5014461;28;20026;-72
2022/11/17 14:46:20;;;;;;;27.27;22.25;;;;;;;;;;5012878;28;20032;-73
2022/11/17 14:48:45;;;;;;;19.10;15.93;;;;;;;;;;5014278;28;20036;-73
2022/11/17 14:51:11;;;;;;;18.42;11.88;;;;;;;;;;5014327;28;20026;-73
2022/11/17 14:53:36;;;;;;;15.85;10.43;;;;;;;;;;5014356;28;20030;-73
2022/11/17 14:56:08;;;;;;;16.70;9.65;;;;;;;;;;5014226;28;20396;-73
2022/11/17 14:58:34;;;;;;;20.17;13.15;;;;;;;;;;5014298;28;20066;-73
2022/11/17 15:01:06;;;;;;;15.88;11.35;;;;;;;;;;5014242;28;20021;-73
2022/11/17 15:03:31;;;;;;;14.80;9.40;;;;;;;;;;5014210;28;20037;-73
2022/11/17 15:05:56;;;;;;;26.25;21.83;;;;;;;;;;5013908;28;20068;-74
2022/11/17 15:08:22;;;;;;;45.03;36.10;;;;;;;;;;5013843;28;20030;-74
2022/11/17 15:10:47;;;;;;;101.47;78.50;;;;;;;;;;5014136;28;20033;-73
2022/11/17 15:13:12;;;;;;;32.75;28.80;;;;;;;;;;5014092;28;20061;-73